createdAt,value
2023-06-11T00:03:22.452Z,70.70
2023-06-11T00:05:50.432Z,70.54
2023-06-11T00:08:17.291Z,70.24
2023-06-11T00:10:44.568Z,70.43
2023-06-11T00:13:11.547Z,70.31
2023-06-11T00:15:38.959Z,70.71
2023-06-11T00:18:06.427Z,70.51
2023-06-11T00:20:42.863Z,70.47
2023-06-11T00:23:10.549Z,70.55
2023-06-11T00:25:37.854Z,70.33
2023-06-11T00:28:05.046Z,70.89
2023-06-11T00:30:32.345Z,70.67
2023-06-11T00:33:01.122Z,71.06
2023-06-11T00:35:28.625Z,70.98
2023-06-11T00:37:58.631Z,71.32
2023-06-11T00:40:25.906Z,71.40
2023-06-11T00:42:53.179Z,71.62
2023-06-11T00:45:20.581Z,71.68
2023-06-11T00:47:47.645Z,71.55
2023-06-11T00:50:16.516Z,71.41
2023-06-11T00:52:43.882Z,71.47
2023-06-11T00:55:13.198Z,71.60
2023-06-11T00:57:43.889Z,71.49
2023-06-11T01:00:13.925Z,71.73
2023-06-11T01:02:46.365Z,71.79
2023-06-11T01:05:19.339Z,72.08
2023-06-11T01:07:52.461Z,71.90
2023-06-11T01:10:22.507Z,72.15
2023-06-11T01:12:49.652Z,72.04
2023-06-11T01:15:17.120Z,72.17
2023-06-11T01:17:51.606Z,72.31
2023-06-11T01:20:26.381Z,72.29
2023-06-11T01:23:16.124Z,71.89
2023-06-11T01:26:00.800Z,72.12
2023-06-11T01:28:33.108Z,72.29
2023-06-11T01:31:08.687Z,72.37
2023-06-11T01:33:37.216Z,72.43
2023-06-11T01:36:06.861Z,72.47
2023-06-11T01:38:43.033Z,72.51
2023-06-11T01:41:12.421Z,72.65
2023-06-11T01:43:41.184Z,72.38
2023-06-11T01:48:50.768Z,72.55
2023-06-11T01:51:18.212Z,72.56
2023-06-11T01:53:45.609Z,72.54
2023-06-11T01:56:12.898Z,72.29
2023-06-11T01:58:41.540Z,72.14
2023-06-11T02:01:09.380Z,72.23
2023-06-11T02:03:36.694Z,72.45
2023-06-11T02:06:04.362Z,72.59
2023-06-11T02:08:31.406Z,72.54
2023-06-11T02:10:58.746Z,72.54
2023-06-11T02:13:31.959Z,72.63
2023-06-11T02:16:01.210Z,72.72
2023-06-11T02:18:28.352Z,72.93
2023-06-11T02:20:55.697Z,72.63
2023-06-11T02:23:22.814Z,72.41
2023-06-11T02:25:50.725Z,72.32
2023-06-11T02:28:18.336Z,72.08
2023-06-11T02:30:45.552Z,72.10
2023-06-11T02:33:14.022Z,71.89
2023-06-11T02:35:41.180Z,71.99
2023-06-11T02:38:08.691Z,71.61
2023-06-11T02:40:36.116Z,72.17
2023-06-11T02:43:03.834Z,72.32
2023-06-11T02:45:31.140Z,72.25
2023-06-11T02:47:58.323Z,72.17
2023-06-11T02:50:27.066Z,72.08
2023-06-11T02:52:54.199Z,72.08
2023-06-11T02:55:21.465Z,72.02
2023-06-11T02:57:48.520Z,71.96
2023-06-11T03:00:16.363Z,71.79
2023-06-11T03:02:43.692Z,71.77
2023-06-11T03:05:11.598Z,71.63
2023-06-11T03:07:40.345Z,71.43
2023-06-11T03:10:08.649Z,71.14
2023-06-11T03:12:36.361Z,71.33
2023-06-11T03:15:04.554Z,71.43
2023-06-11T03:17:40.138Z,71.25
2023-06-11T03:20:09.492Z,70.87
2023-06-11T03:22:36.742Z,70.78
2023-06-11T03:25:06.698Z,70.69
2023-06-11T03:27:33.821Z,70.86
2023-06-11T03:30:01.199Z,71.03
2023-06-11T03:32:28.603Z,70.79
2023-06-11T03:34:55.974Z,70.69
2023-06-11T03:37:22.933Z,70.20
2023-06-11T03:39:50.431Z,69.78
2023-06-11T03:42:18.763Z,69.05
2023-06-11T03:44:46.074Z,69.58
2023-06-11T03:47:13.056Z,69.74
2023-06-11T03:49:40.422Z,69.73
2023-06-11T03:52:08.493Z,69.79
2023-06-11T03:57:19.784Z,69.40
2023-06-11T03:59:47.166Z,69.72
2023-06-11T04:02:14.186Z,69.55
2023-06-11T04:04:41.706Z,69.31
2023-06-11T04:07:08.640Z,69.09
2023-06-11T04:09:36.048Z,68.01
2023-06-11T04:12:03.786Z,68.17
2023-06-11T04:14:32.560Z,67.41
2023-06-11T04:16:59.616Z,66.34
2023-06-11T04:19:26.934Z,66.15
2023-06-11T04:21:53.978Z,65.91
2023-06-11T04:24:21.402Z,65.30
2023-06-11T04:26:49.192Z,64.76
2023-06-11T04:29:16.983Z,62.89
2023-06-11T04:31:47.957Z,60.34
2023-06-11T04:34:18.296Z,58.36
2023-06-11T04:36:45.424Z,56.96
2023-06-11T04:39:12.839Z,55.79
2023-06-11T04:41:40.839Z,55.45
2023-06-11T04:44:08.186Z,53.34
2023-06-11T04:46:35.790Z,50.50
2023-06-11T04:49:08.117Z,49.88
2023-06-11T04:51:35.327Z,47.89
2023-06-11T04:54:08.629Z,46.46
2023-06-11T04:56:36.024Z,44.21
2023-06-11T04:59:05.073Z,44.14
2023-06-11T05:01:33.603Z,44.24
2023-06-11T05:04:01.306Z,42.51
2023-06-11T05:06:31.006Z,41.43
2023-06-11T05:08:58.753Z,41.24
2023-06-11T05:11:25.873Z,43.36
2023-06-11T05:13:53.352Z,41.03
2023-06-11T05:16:22.530Z,40.17
2023-06-11T05:18:49.957Z,41.43
2023-06-11T05:21:16.927Z,44.25
2023-06-11T05:23:45.818Z,45.33
2023-06-11T05:26:16.233Z,46.55
2023-06-11T05:28:43.602Z,47.69
2023-06-11T05:31:14.005Z,49.26
2023-06-11T05:33:41.712Z,50.05
2023-06-11T05:36:08.788Z,50.16
2023-06-11T05:38:36.186Z,49.95
2023-06-11T05:41:04.657Z,49.70
2023-06-11T05:43:31.930Z,49.52
2023-06-11T05:45:58.981Z,47.44
2023-06-11T05:48:28.185Z,47.97
2023-06-11T05:50:55.342Z,47.97
2023-06-11T05:53:23.142Z,47.15
2023-06-11T05:55:51.701Z,46.88
2023-06-11T05:58:24.244Z,45.47
2023-06-11T06:00:52.834Z,45.63
2023-06-11T06:03:21.617Z,45.96
2023-06-11T06:05:48.872Z,45.93
2023-06-11T06:08:18.580Z,45.18
2023-06-11T06:10:45.568Z,45.34
2023-06-11T06:13:13.069Z,45.21
2023-06-11T06:15:44.375Z,45.60
2023-06-11T06:18:15.206Z,44.93
2023-06-11T06:20:47.908Z,45.18
2023-06-11T06:23:19.112Z,44.14
2023-06-11T06:25:48.991Z,44.33
2023-06-11T06:28:18.471Z,44.31
2023-06-11T06:30:47.530Z,43.84
2023-06-11T06:33:15.025Z,44.48
2023-06-11T06:35:44.224Z,44.98
2023-06-11T06:38:11.587Z,44.09
2023-06-11T06:40:38.803Z,44.48
2023-06-11T06:43:06.598Z,43.25
2023-06-11T06:45:34.758Z,43.92
2023-06-11T06:48:09.043Z,45.28
2023-06-11T06:50:36.332Z,44.93
2023-06-11T06:53:03.881Z,45.37
2023-06-11T06:55:31.211Z,46.03
2023-06-11T06:57:58.501Z,45.70
2023-06-11T07:00:25.435Z,45.44
2023-06-11T07:02:53.340Z,45.24
2023-06-11T07:05:22.010Z,45.50
2023-06-11T07:07:49.398Z,45.49
2023-06-11T07:10:22.568Z,45.38
2023-06-11T07:12:50.436Z,45.16
2023-06-11T07:15:17.671Z,44.90
2023-06-11T07:17:44.996Z,43.71
2023-06-11T07:20:13.421Z,43.90
2023-06-11T07:22:43.844Z,43.53
2023-06-11T07:25:11.149Z,43.16
2023-06-11T07:27:38.665Z,42.89
2023-06-11T07:30:06.925Z,43.01
2023-06-11T07:32:34.540Z,43.13
2023-06-11T07:35:01.666Z,42.27
2023-06-11T07:37:29.264Z,41.86
2023-06-11T07:39:57.788Z,41.75
2023-06-11T07:42:25.330Z,41.85
2023-06-11T07:44:52.427Z,41.86
2023-06-11T07:47:19.900Z,41.98
2023-06-11T07:49:47.178Z,41.80
2023-06-11T07:52:14.474Z,40.70
2023-06-11T07:54:42.409Z,40.87
2023-06-11T07:57:14.275Z,40.87
2023-06-11T07:59:43.399Z,40.89
2023-06-11T08:02:11.751Z,41.12
2023-06-11T08:04:39.564Z,41.75
2023-06-11T08:07:07.801Z,41.67
2023-06-11T08:09:39.048Z,41.88
2023-06-11T08:12:08.573Z,41.95
2023-06-11T08:14:37.322Z,42.81
2023-06-11T08:17:05.403Z,41.41
2023-06-11T08:19:32.732Z,41.11
2023-06-11T08:22:02.574Z,41.24
2023-06-11T08:24:31.724Z,41.68
2023-06-11T08:26:59.268Z,41.58
2023-06-11T08:29:26.454Z,42.01
2023-06-11T08:31:55.988Z,41.44
2023-06-11T08:34:23.414Z,41.38
2023-06-11T08:36:51.527Z,41.85
2023-06-11T08:39:18.815Z,42.09
2023-06-11T08:41:46.220Z,42.12
2023-06-11T08:44:13.418Z,41.86
2023-06-11T08:46:44.479Z,41.75
2023-06-11T08:49:21.315Z,41.35
2023-06-11T08:51:50.036Z,40.68
2023-06-11T08:54:17.852Z,41.22
2023-06-11T08:56:45.025Z,39.69
2023-06-11T08:59:12.539Z,39.89
2023-06-11T09:01:41.649Z,38.98
2023-06-11T09:04:09.341Z,38.97
2023-06-11T09:06:40.578Z,37.81
2023-06-11T09:09:08.769Z,37.70
2023-06-11T09:11:37.379Z,37.62
2023-06-11T09:14:05.171Z,36.87
2023-06-11T09:16:41.078Z,36.78
2023-06-11T09:19:12.369Z,37.47
2023-06-11T09:21:49.178Z,37.80
2023-06-11T09:24:18.996Z,37.84
2023-06-11T09:26:51.919Z,37.75
2023-06-11T09:29:19.095Z,38.63
2023-06-11T09:31:46.778Z,38.31
2023-06-11T09:34:21.027Z,39.02
2023-06-11T09:36:50.241Z,37.90
2023-06-11T09:39:19.063Z,37.60
2023-06-11T09:41:50.635Z,37.24
2023-06-11T09:44:18.781Z,37.80
2023-06-11T09:46:47.856Z,37.42
2023-06-11T09:49:16.256Z,37.15
2023-06-11T09:51:44.747Z,37.56
2023-06-11T09:54:16.472Z,37.45
2023-06-11T09:56:45.010Z,37.55
2023-06-11T09:59:15.305Z,37.81
2023-06-11T10:01:48.527Z,37.10
2023-06-11T10:04:16.055Z,37.24
2023-06-11T10:06:47.333Z,37.12
2023-06-11T10:09:17.948Z,36.44
2023-06-11T10:11:46.803Z,36.76
2023-06-11T10:14:18.462Z,36.50
2023-06-11T10:16:50.385Z,36.06
2023-06-11T10:19:18.486Z,35.04
2023-06-11T10:21:55.610Z,36.30
2023-06-11T10:24:25.710Z,36.27
2023-06-11T10:27:08.508Z,36.52
2023-06-11T10:29:39.227Z,36.48
2023-06-11T10:32:16.773Z,37.06
2023-06-11T10:34:44.641Z,36.42
2023-06-11T10:37:13.206Z,36.03
2023-06-11T10:39:51.882Z,34.91
2023-06-11T10:42:27.444Z,34.41
2023-06-11T10:44:58.074Z,33.39
2023-06-11T10:47:26.104Z,33.71
2023-06-11T10:49:54.927Z,34.19
2023-06-11T10:52:22.398Z,34.64
2023-06-11T10:54:52.972Z,35.09
2023-06-11T10:57:21.645Z,35.39
2023-06-11T10:59:51.192Z,35.05
2023-06-11T11:02:19.621Z,33.62
2023-06-11T11:04:52.373Z,34.58
2023-06-11T11:07:20.190Z,35.13
2023-06-11T11:09:47.562Z,34.75
2023-06-11T11:12:16.908Z,34.94
2023-06-11T11:14:44.013Z,35.38
2023-06-11T11:17:11.575Z,35.51
2023-06-11T11:19:41.674Z,35.57
2023-06-11T11:22:13.269Z,35.19
2023-06-11T11:24:40.977Z,36.00
2023-06-11T11:27:09.099Z,35.97
2023-06-11T11:29:38.257Z,34.66
2023-06-11T11:32:06.995Z,34.35
2023-06-11T11:34:39.474Z,34.95
2023-06-11T11:37:07.679Z,35.43
2023-06-11T11:39:35.240Z,35.78
2023-06-11T11:42:03.301Z,35.96
2023-06-11T11:44:41.084Z,35.75
2023-06-11T11:47:09.513Z,36.15
2023-06-11T11:49:37.300Z,36.34
2023-06-11T11:52:06.538Z,36.44
2023-06-11T11:54:33.756Z,36.22
2023-06-11T11:57:04.584Z,35.74
2023-06-11T11:59:38.896Z,35.67
2023-06-11T12:02:08.941Z,36.62
2023-06-11T12:04:37.433Z,36.97
2023-06-11T12:07:05.999Z,36.51
2023-06-11T12:09:33.402Z,36.73
2023-06-11T12:12:05.741Z,37.11
2023-06-11T12:14:34.060Z,36.82
2023-06-11T12:17:01.750Z,37.08
2023-06-11T12:19:32.303Z,37.11
2023-06-11T12:22:00.170Z,37.99
2023-06-11T12:24:27.836Z,37.06
2023-06-11T12:26:55.454Z,36.72
2023-06-11T12:29:22.436Z,36.95
2023-06-11T12:31:53.122Z,36.94
2023-06-11T12:34:20.700Z,37.10
2023-06-11T12:36:51.022Z,37.43
2023-06-11T12:39:18.135Z,37.59
2023-06-11T12:41:47.910Z,37.82
2023-06-11T12:44:19.226Z,37.98
2023-06-11T12:46:46.835Z,37.95
2023-06-11T12:49:14.455Z,37.92
2023-06-11T12:51:46.930Z,37.91
2023-06-11T12:54:16.463Z,38.10
2023-06-11T12:56:44.173Z,38.55
2023-06-11T12:59:11.418Z,38.02
2023-06-11T13:01:38.874Z,37.96
2023-06-11T13:04:06.247Z,38.34
2023-06-11T13:06:33.735Z,37.84
2023-06-11T13:09:00.779Z,38.12
2023-06-11T13:11:30.025Z,38.77
2023-06-11T13:13:58.057Z,40.00
2023-06-11T13:16:25.839Z,41.24
2023-06-11T13:18:54.924Z,41.90
2023-06-11T13:21:22.441Z,41.91
2023-06-11T13:23:49.522Z,42.43
2023-06-11T13:26:17.164Z,42.85
2023-06-11T13:28:45.748Z,42.69
2023-06-11T13:31:13.239Z,42.93
2023-06-11T13:33:41.585Z,43.30
2023-06-11T13:36:09.493Z,44.12
2023-06-11T13:38:37.612Z,44.65
2023-06-11T13:41:04.967Z,45.60
2023-06-11T13:43:31.979Z,46.04
2023-06-11T13:46:00.574Z,47.65
2023-06-11T13:48:28.138Z,48.42
2023-06-11T13:50:56.860Z,49.73
2023-06-11T13:53:25.019Z,51.00
2023-06-11T13:55:53.492Z,51.09
2023-06-11T13:58:23.409Z,51.55
2023-06-11T14:00:54.038Z,52.36
2023-06-11T14:03:23.404Z,53.49
2023-06-11T14:05:50.289Z,54.51
2023-06-11T14:08:19.220Z,57.08
2023-06-11T14:10:46.525Z,56.85
2023-06-11T14:13:14.607Z,55.88
2023-06-11T14:15:41.573Z,55.40
2023-06-11T14:18:09.109Z,55.64
2023-06-11T14:20:37.587Z,55.63
2023-06-11T14:23:06.719Z,57.36
2023-06-11T14:25:34.016Z,58.23
2023-06-11T14:28:02.259Z,60.16
2023-06-11T14:30:29.439Z,60.56
2023-06-11T14:32:57.253Z,58.36
2023-06-11T14:35:24.630Z,58.00
2023-06-11T14:38:21.747Z,57.66
2023-06-11T14:40:50.173Z,60.96
2023-06-11T14:43:17.688Z,59.23
2023-06-11T14:45:44.743Z,58.74
2023-06-11T14:48:12.166Z,61.21
2023-06-11T14:50:39.350Z,61.77
2023-06-11T14:53:08.710Z,60.27
2023-06-11T14:55:36.540Z,60.23
2023-06-11T14:58:05.550Z,61.68
2023-06-11T15:00:43.880Z,60.50
2023-06-11T15:03:13.099Z,60.00
2023-06-11T15:05:41.590Z,60.46
2023-06-11T15:08:09.587Z,60.81
2023-06-11T15:10:40.145Z,61.00
2023-06-11T15:13:09.289Z,61.21
2023-06-11T15:15:36.198Z,61.40
2023-06-11T15:18:04.041Z,62.47
2023-06-11T15:20:31.239Z,62.23
2023-06-11T15:22:58.666Z,62.23
2023-06-11T15:25:25.817Z,62.08
2023-06-11T15:27:53.410Z,62.22
2023-06-11T15:30:22.011Z,62.63
2023-06-11T15:32:49.460Z,62.56
2023-06-11T15:35:16.859Z,63.87
2023-06-11T15:37:44.446Z,64.30
2023-06-11T15:40:12.778Z,63.97
2023-06-11T15:42:40.661Z,63.21
2023-06-11T15:45:09.902Z,63.83
2023-06-11T15:47:39.195Z,64.17
2023-06-11T15:50:08.480Z,64.23
2023-06-11T15:52:36.400Z,64.15
2023-06-11T15:55:04.254Z,64.16
2023-06-11T15:57:32.015Z,63.62
2023-06-11T15:59:59.113Z,64.01
2023-06-11T16:02:26.699Z,64.26
2023-06-11T16:04:55.278Z,64.72
2023-06-11T16:07:23.000Z,64.99
2023-06-11T16:09:50.522Z,64.70
2023-06-11T16:12:18.070Z,65.02
2023-06-11T16:14:46.170Z,64.53
2023-06-11T16:17:13.645Z,64.25
2023-06-11T16:19:41.439Z,63.97
2023-06-11T16:22:12.575Z,64.50
2023-06-11T16:24:40.159Z,64.42
2023-06-11T16:27:07.913Z,64.16
2023-06-11T16:29:34.959Z,64.33
2023-06-11T16:32:02.236Z,64.18
2023-06-11T16:34:29.997Z,64.70
2023-06-11T16:36:57.374Z,64.97
2023-06-11T16:39:28.644Z,65.17
2023-06-11T16:41:57.083Z,64.91
2023-06-11T16:44:24.407Z,65.25
2023-06-11T16:46:52.821Z,65.19
2023-06-11T16:49:20.041Z,65.10
2023-06-11T16:51:47.903Z,65.03
2023-06-11T16:54:18.346Z,65.10
2023-06-11T16:56:48.108Z,64.89
2023-06-11T16:59:15.083Z,64.83
2023-06-11T17:01:42.742Z,64.70
2023-06-11T17:04:09.930Z,65.05
2023-06-11T17:06:37.347Z,64.99
2023-06-11T17:09:04.603Z,64.83
2023-06-11T17:11:31.990Z,64.93
2023-06-11T17:14:00.532Z,65.27
2023-06-11T17:16:28.617Z,64.86
2023-06-11T17:18:56.232Z,65.25
2023-06-11T17:21:23.537Z,65.19
2023-06-11T17:23:50.565Z,65.72
2023-06-11T17:26:18.378Z,66.27
2023-06-11T17:28:45.725Z,66.23
2023-06-11T17:31:14.524Z,66.01
2023-06-11T17:33:41.801Z,66.08
2023-06-11T17:36:09.505Z,66.15
2023-06-11T17:38:36.929Z,66.41
2023-06-11T17:41:04.392Z,66.25
2023-06-11T17:43:32.793Z,66.40
2023-06-11T17:45:59.979Z,66.40
2023-06-11T17:48:28.793Z,66.58
2023-06-11T17:50:56.245Z,66.32
2023-06-11T17:53:25.105Z,66.68
2023-06-11T17:55:52.625Z,66.78
2023-06-11T17:58:19.735Z,66.70
2023-06-11T18:00:47.332Z,66.53
2023-06-11T18:03:14.549Z,66.75
2023-06-11T18:05:43.513Z,67.33
2023-06-11T18:08:10.524Z,67.35
2023-06-11T18:10:37.915Z,67.12
2023-06-11T18:13:05.298Z,67.12
2023-06-11T18:15:35.163Z,67.03
2023-06-11T18:18:04.901Z,67.31
2023-06-11T18:20:32.789Z,67.26
2023-06-11T18:23:01.624Z,67.03
2023-06-11T18:25:29.117Z,67.55
2023-06-11T18:27:56.316Z,67.48
2023-06-11T18:30:23.905Z,67.63
2023-06-11T18:32:51.648Z,67.51
2023-06-11T18:35:19.361Z,67.49
2023-06-11T18:37:49.728Z,67.48
2023-06-11T18:40:18.717Z,67.95
2023-06-11T18:42:46.056Z,68.05
2023-06-11T18:45:13.370Z,67.97
2023-06-11T18:47:40.741Z,67.84
2023-06-11T18:50:10.888Z,67.65
2023-06-11T18:52:41.785Z,67.84
2023-06-11T18:55:09.780Z,67.40
2023-06-11T18:57:38.134Z,66.90
2023-06-11T19:00:11.541Z,67.27
2023-06-11T19:02:39.054Z,67.85
2023-06-11T19:05:07.522Z,68.18
2023-06-11T19:07:36.262Z,67.70
2023-06-11T19:10:03.798Z,67.95
2023-06-11T19:12:31.028Z,67.60
2023-06-11T19:14:59.862Z,67.75
2023-06-11T19:17:26.927Z,68.01
2023-06-11T19:19:54.251Z,67.76
2023-06-11T19:22:21.227Z,67.95
2023-06-11T19:24:48.887Z,67.73
2023-06-11T19:27:16.014Z,68.19
2023-06-11T19:29:43.365Z,68.02
2023-06-11T19:32:11.810Z,68.16
2023-06-11T19:34:39.186Z,68.29
2023-06-11T19:37:06.661Z,68.07
2023-06-11T19:39:34.236Z,68.03
2023-06-11T19:42:01.326Z,68.11
2023-06-11T19:44:28.770Z,67.61
2023-06-11T19:46:56.070Z,67.79
2023-06-11T19:49:24.757Z,67.71
2023-06-11T19:51:51.880Z,67.99
2023-06-11T19:54:19.282Z,68.13
2023-06-11T19:56:46.554Z,68.20
2023-06-11T19:59:15.031Z,68.46
2023-06-11T20:01:42.737Z,68.76
2023-06-11T20:04:10.318Z,68.42
2023-06-11T20:06:39.020Z,68.72
2023-06-11T20:09:06.699Z,69.00
2023-06-11T20:11:34.808Z,69.26
2023-06-11T20:14:02.005Z,69.31
2023-06-11T20:16:29.411Z,68.81
2023-06-11T20:18:56.478Z,68.99
2023-06-11T20:21:24.486Z,68.71
2023-06-11T20:23:58.311Z,68.72
2023-06-11T20:26:25.573Z,68.89
2023-06-11T20:28:52.619Z,68.88
2023-06-11T20:31:20.007Z,68.67
2023-06-11T20:33:47.227Z,68.87
2023-06-11T20:36:14.696Z,68.75
2023-06-11T20:38:41.768Z,68.96
2023-06-11T20:41:10.725Z,68.60
2023-06-11T20:43:42.298Z,68.91
2023-06-11T20:46:28.812Z,68.70
2023-06-11T20:48:57.021Z,68.85
2023-06-11T20:51:24.403Z,68.79
2023-06-11T20:53:51.564Z,68.81
2023-06-11T20:56:20.652Z,68.83
2023-06-11T20:58:47.620Z,68.17
2023-06-11T21:01:16.318Z,67.86
2023-06-11T21:03:43.710Z,67.63
2023-06-11T21:06:11.191Z,67.41
2023-06-11T21:08:38.347Z,67.47
2023-06-11T21:11:05.853Z,67.67
2023-06-11T21:13:34.697Z,67.98
2023-06-11T21:16:02.371Z,68.35
2023-06-11T21:18:29.601Z,68.76
2023-06-11T21:20:57.208Z,68.75
2023-06-11T21:23:24.380Z,68.78
2023-06-11T21:25:54.080Z,68.94
2023-06-11T21:28:21.089Z,69.10
2023-06-11T21:30:50.070Z,69.66
2023-06-11T21:33:17.212Z,69.87
2023-06-11T21:35:45.739Z,69.18
2023-06-11T21:38:13.062Z,69.36
2023-06-11T21:40:40.479Z,69.18
2023-06-11T21:43:07.526Z,69.15
2023-06-11T21:45:34.900Z,68.94
2023-06-11T21:48:04.394Z,69.53
2023-06-11T21:50:32.230Z,69.50
2023-06-11T21:53:00.276Z,69.57
2023-06-11T21:55:27.773Z,69.90
2023-06-11T21:57:54.793Z,69.85
2023-06-11T22:00:22.416Z,69.91
2023-06-11T22:02:49.670Z,69.47
2023-06-11T22:05:20.477Z,0.00
2023-06-11T22:07:49.769Z,70.10
2023-06-11T22:10:17.312Z,70.24
2023-06-11T22:12:45.953Z,70.17
2023-06-11T22:15:14.260Z,70.31
2023-06-11T22:17:41.528Z,70.19
2023-06-11T22:20:11.149Z,70.03
2023-06-11T22:22:41.856Z,69.99
2023-06-11T22:25:11.410Z,71.35
2023-06-11T22:27:41.023Z,70.11
2023-06-11T22:30:10.177Z,71.64
2023-06-11T22:32:38.046Z,71.33
2023-06-11T22:35:05.960Z,69.82
2023-06-11T22:37:37.380Z,69.98
2023-06-11T22:40:07.537Z,100.00
2023-06-11T22:42:35.019Z,70.04
2023-06-11T22:45:02.427Z,69.65
2023-06-11T22:47:30.309Z,69.77
2023-06-11T22:49:57.739Z,0.00
2023-06-11T22:52:25.165Z,69.12
2023-06-11T22:54:52.717Z,69.27
2023-06-11T22:57:21.691Z,69.21
2023-06-11T22:59:48.582Z,69.28
2023-06-11T23:02:15.871Z,68.91
2023-06-11T23:04:43.079Z,0.00
2023-06-11T23:07:12.208Z,68.95
2023-06-11T23:09:39.330Z,75.53
2023-06-11T23:12:08.322Z,70.02
2023-06-11T23:14:36.481Z,69.07
2023-06-11T23:17:04.691Z,0.00
2023-06-11T23:19:33.411Z,69.00
2023-06-11T23:22:02.503Z,100.00
2023-06-11T23:24:29.445Z,100.00
2023-06-11T23:27:02.442Z,68.52
2023-06-11T23:29:30.180Z,68.62
2023-06-11T23:31:59.232Z,68.44
2023-06-11T23:34:26.491Z,68.45
2023-06-11T23:36:54.027Z,68.52
2023-06-11T23:39:21.382Z,68.51
2023-06-11T23:41:48.851Z,68.30
2023-06-11T23:44:15.884Z,68.49
2023-06-11T23:46:43.259Z,68.67
2023-06-11T23:49:11.830Z,68.94
2023-06-11T23:51:41.695Z,69.10
2023-06-11T23:54:09.112Z,68.84
2023-06-11T23:56:36.730Z,68.84
2023-06-11T23:59:03.784Z,68.83
